createdAt,value
2023-12-11T00:01:08.982Z,3.00
2023-12-11T00:03:36.058Z,4.90
2023-12-11T00:06:03.740Z,5.03
2023-12-11T00:08:30.700Z,3.72
2023-12-11T00:10:57.640Z,5.82
2023-12-11T00:13:24.738Z,2.90
2023-12-11T00:15:51.613Z,2.85
2023-12-11T00:18:18.666Z,4.18
2023-12-11T00:20:45.715Z,3.67
2023-12-11T00:23:12.645Z,4.38
2023-12-11T00:25:46.020Z,3.97
2023-12-11T00:28:13.064Z,3.28
2023-12-11T00:30:40.022Z,2.83
2023-12-11T00:33:06.964Z,3.03
2023-12-11T00:35:33.935Z,3.17
2023-12-11T00:38:00.920Z,3.63
2023-12-11T00:40:27.829Z,3.25
2023-12-11T00:42:54.735Z,3.75
2023-12-11T00:45:21.628Z,2.20
2023-12-11T00:47:48.573Z,6.47
2023-12-11T00:50:15.637Z,7.88
2023-12-11T00:52:43.249Z,7.13
2023-12-11T00:55:10.438Z,7.32
2023-12-11T00:57:37.442Z,4.13
2023-12-11T01:00:04.893Z,4.07
2023-12-11T01:02:31.788Z,3.83
2023-12-11T01:04:59.149Z,4.47
2023-12-11T01:07:26.087Z,2.45
2023-12-11T01:09:52.957Z,3.70
2023-12-11T01:12:20.423Z,3.22
2023-12-11T01:14:47.358Z,3.90
2023-12-11T01:17:37.043Z,2.03
2023-12-11T01:20:01.345Z,4.25
2023-12-11T01:22:28.393Z,5.78
2023-12-11T01:24:55.344Z,5.15
2023-12-11T01:27:22.305Z,4.93
2023-12-11T01:29:49.167Z,3.03
2023-12-11T01:32:16.004Z,2.88
2023-12-11T01:34:43.033Z,2.40
2023-12-11T01:37:10.165Z,4.18
2023-12-11T01:39:37.117Z,2.28
2023-12-11T01:42:04.247Z,2.72
2023-12-11T01:44:31.814Z,2.95
2023-12-11T01:46:58.691Z,2.22
2023-12-11T01:49:25.948Z,2.97
2023-12-11T01:51:53.037Z,2.88
2023-12-11T01:54:20.982Z,2.40
2023-12-11T01:56:48.147Z,3.00
2023-12-11T01:59:15.368Z,4.70
2023-12-11T02:01:43.359Z,2.72
2023-12-11T02:04:10.599Z,3.38
2023-12-11T02:06:37.785Z,2.50
2023-12-11T02:09:05.362Z,2.67
2023-12-11T02:11:32.651Z,3.05
2023-12-11T02:13:59.534Z,3.08
2023-12-11T02:16:26.558Z,3.28
2023-12-11T02:18:53.748Z,3.65
2023-12-11T02:21:22.283Z,3.55
2023-12-11T02:23:49.127Z,4.28
2023-12-11T02:26:18.032Z,2.60
2023-12-11T02:28:45.630Z,2.85
2023-12-11T02:31:13.443Z,2.33
2023-12-11T02:33:40.788Z,3.33
2023-12-11T02:36:08.092Z,2.63
2023-12-11T02:38:35.138Z,2.75
2023-12-11T02:41:02.079Z,4.10
2023-12-11T02:43:28.962Z,3.75
2023-12-11T02:45:55.866Z,2.22
2023-12-11T02:48:22.959Z,2.92
2023-12-11T02:50:50.035Z,3.45
2023-12-11T02:53:17.028Z,3.00
2023-12-11T02:55:43.940Z,1.63
2023-12-11T02:58:11.205Z,2.13
2023-12-11T03:00:38.327Z,2.58
2023-12-11T03:03:05.427Z,1.77
2023-12-11T03:05:32.472Z,2.83
2023-12-11T03:07:59.394Z,1.85
2023-12-11T03:10:26.419Z,1.75
2023-12-11T03:12:53.317Z,2.42
2023-12-11T03:15:20.419Z,1.88
2023-12-11T03:17:48.488Z,2.60
2023-12-11T03:20:15.728Z,1.63
2023-12-11T03:22:42.861Z,2.80
2023-12-11T03:25:09.986Z,1.80
2023-12-11T03:27:37.212Z,3.17
2023-12-11T03:30:04.378Z,1.70
2023-12-11T03:32:31.346Z,1.83
2023-12-11T03:34:58.332Z,1.25
2023-12-11T03:37:25.391Z,1.10
2023-12-11T03:39:52.320Z,2.05
2023-12-11T03:42:19.224Z,1.60
2023-12-11T03:44:46.163Z,1.48
2023-12-11T03:47:13.558Z,1.13
2023-12-11T03:49:40.871Z,2.00
2023-12-11T03:52:08.042Z,0.95
2023-12-11T03:54:35.080Z,2.33
2023-12-11T03:57:01.960Z,1.33
2023-12-11T03:59:28.797Z,2.15
2023-12-11T04:01:55.845Z,1.65
2023-12-11T04:04:22.809Z,1.98
2023-12-11T04:06:49.834Z,2.03
2023-12-11T04:09:16.711Z,1.65
2023-12-11T04:11:45.485Z,2.33
2023-12-11T04:14:13.039Z,1.67
2023-12-11T04:16:43.526Z,1.77
2023-12-11T04:19:12.343Z,1.45
2023-12-11T04:21:39.742Z,3.67
2023-12-11T04:24:06.838Z,2.55
2023-12-11T04:26:33.727Z,3.38
2023-12-11T04:29:00.846Z,2.45
2023-12-11T04:31:27.799Z,2.88
2023-12-11T04:33:54.937Z,3.70
2023-12-11T04:36:22.012Z,0.95
2023-12-11T04:38:48.919Z,1.75
2023-12-11T04:41:15.760Z,1.35
2023-12-11T04:43:42.725Z,2.10
2023-12-11T04:46:09.630Z,1.30
2023-12-11T04:48:36.712Z,0.88
2023-12-11T04:51:04.900Z,1.98
2023-12-11T04:53:31.749Z,1.40
2023-12-11T04:55:58.638Z,1.38
2023-12-11T04:58:25.569Z,3.22
2023-12-11T05:00:52.526Z,1.67
2023-12-11T05:03:19.480Z,2.60
2023-12-11T05:05:46.371Z,1.20
2023-12-11T05:08:13.889Z,2.60
2023-12-11T05:10:40.837Z,2.30
2023-12-11T05:13:07.858Z,3.30
2023-12-11T05:15:34.741Z,3.38
2023-12-11T05:18:01.805Z,2.75
2023-12-11T05:20:28.713Z,3.45
2023-12-11T05:22:55.793Z,2.65
2023-12-11T05:25:22.734Z,2.38
2023-12-11T05:27:49.635Z,2.97
2023-12-11T05:30:17.083Z,3.53
2023-12-11T05:32:45.415Z,3.42
2023-12-11T05:35:12.403Z,3.83
2023-12-11T05:37:39.357Z,2.50
2023-12-11T05:40:21.653Z,3.25
2023-12-11T05:42:51.193Z,3.08
2023-12-11T05:45:18.153Z,3.55
2023-12-11T05:47:45.023Z,2.38
2023-12-11T05:50:13.353Z,4.32
2023-12-11T05:52:40.249Z,2.85
2023-12-11T05:55:07.456Z,1.45
2023-12-11T05:57:34.505Z,1.85
2023-12-11T06:00:01.405Z,1.88
2023-12-11T06:02:28.678Z,1.48
2023-12-11T06:04:55.730Z,2.63
2023-12-11T06:07:22.716Z,1.73
2023-12-11T06:09:49.835Z,1.02
2023-12-11T06:12:17.328Z,2.15
2023-12-11T06:14:47.208Z,2.08
2023-12-11T06:17:16.034Z,3.80
2023-12-11T06:19:45.922Z,2.35
2023-12-11T06:22:13.219Z,1.08
2023-12-11T06:24:41.573Z,3.00
2023-12-11T06:27:09.237Z,1.02
2023-12-11T06:29:37.058Z,1.40
2023-12-11T06:32:04.225Z,2.15
2023-12-11T06:34:31.756Z,1.88
2023-12-11T06:36:59.111Z,1.20
2023-12-11T06:39:28.523Z,2.08
2023-12-11T06:41:55.612Z,1.85
2023-12-11T06:44:23.703Z,2.53
2023-12-11T06:46:50.669Z,2.13
2023-12-11T06:49:17.731Z,1.42
2023-12-11T06:51:44.890Z,2.67
2023-12-11T06:54:12.628Z,2.20
2023-12-11T06:56:40.245Z,2.50
2023-12-11T06:59:07.199Z,1.70
2023-12-11T07:01:36.045Z,2.70
2023-12-11T07:04:04.379Z,2.83
2023-12-11T07:06:31.561Z,2.63
2023-12-11T07:08:58.714Z,5.13
2023-12-11T07:11:26.076Z,3.97
2023-12-11T07:13:54.070Z,4.65
2023-12-11T07:16:21.159Z,5.85
2023-12-11T07:18:48.372Z,6.60
2023-12-11T07:21:15.435Z,6.60
2023-12-11T07:23:42.954Z,7.10
2023-12-11T07:26:11.370Z,7.95
2023-12-11T07:28:40.215Z,7.90
2023-12-11T07:31:07.731Z,7.78
2023-12-11T07:33:35.421Z,5.72
2023-12-11T07:36:03.675Z,4.20
2023-12-11T07:38:31.641Z,5.18
2023-12-11T07:40:59.035Z,6.53
2023-12-11T07:43:26.176Z,7.35
2023-12-11T07:45:53.936Z,4.32
2023-12-11T07:48:21.744Z,5.28
2023-12-11T07:50:49.227Z,4.97
2023-12-11T07:53:16.192Z,7.10
2023-12-11T07:55:43.184Z,4.50
2023-12-11T07:58:12.003Z,5.32
2023-12-11T08:00:39.118Z,5.30
2023-12-11T08:03:07.662Z,4.45
2023-12-11T08:05:34.850Z,5.40
2023-12-11T08:08:02.923Z,4.53
2023-12-11T08:10:30.237Z,5.55
2023-12-11T08:12:57.265Z,6.72
2023-12-11T08:15:24.148Z,5.82
2023-12-11T08:17:51.090Z,4.72
2023-12-11T08:20:19.265Z,5.78
2023-12-11T08:22:46.819Z,6.25
2023-12-11T08:25:15.178Z,5.43
2023-12-11T08:27:43.851Z,6.10
2023-12-11T08:30:12.491Z,9.38
2023-12-11T08:32:41.144Z,8.05
2023-12-11T08:35:09.936Z,7.35
2023-12-11T08:37:38.030Z,7.88
2023-12-11T08:40:06.987Z,5.75
2023-12-11T08:42:40.314Z,5.03
2023-12-11T08:45:09.554Z,4.85
2023-12-11T08:47:39.391Z,4.05
2023-12-11T08:50:09.193Z,4.65
2023-12-11T08:52:38.191Z,5.05
2023-12-11T08:55:06.723Z,5.15
2023-12-11T08:57:34.701Z,3.42
2023-12-11T09:00:01.736Z,4.88
2023-12-11T09:02:28.644Z,4.50
2023-12-11T09:04:55.648Z,4.18
2023-12-11T09:07:22.758Z,4.63
2023-12-11T09:09:49.616Z,3.42
2023-12-11T09:12:27.821Z,3.40
2023-12-11T09:15:00.497Z,2.85
2023-12-11T09:17:27.580Z,1.75
2023-12-11T09:19:56.127Z,1.30
2023-12-11T09:22:24.335Z,1.27
2023-12-11T09:24:51.786Z,3.00
2023-12-11T09:27:18.846Z,1.75
2023-12-11T09:29:49.975Z,1.73
2023-12-11T09:32:17.467Z,1.20
2023-12-11T09:34:44.656Z,2.67
2023-12-11T09:37:11.869Z,2.15
2023-12-11T09:39:40.516Z,3.40
2023-12-11T09:42:09.373Z,2.45
2023-12-11T09:44:37.274Z,2.47
2023-12-11T09:47:16.265Z,2.25
2023-12-11T09:49:45.384Z,2.78
2023-12-11T09:52:15.115Z,1.67
2023-12-11T09:54:43.074Z,1.83
2023-12-11T09:57:16.481Z,2.35
2023-12-11T09:59:44.344Z,1.65
2023-12-11T10:02:20.162Z,2.53
2023-12-11T10:05:03.009Z,2.33
2023-12-11T10:07:30.406Z,1.95
2023-12-11T10:09:57.404Z,1.38
2023-12-11T10:12:24.310Z,1.50
2023-12-11T10:15:02.441Z,2.17
2023-12-11T10:17:30.883Z,2.00
2023-12-11T10:19:58.053Z,1.17
2023-12-11T10:22:32.396Z,1.13
2023-12-11T10:24:59.578Z,1.80
2023-12-11T10:27:27.725Z,5.63
2023-12-11T10:30:09.547Z,3.22
2023-12-11T10:32:36.502Z,4.82
2023-12-11T10:35:03.982Z,3.40
2023-12-11T10:37:35.792Z,2.42
2023-12-11T10:40:04.962Z,1.30
2023-12-11T10:42:32.053Z,1.92
2023-12-11T10:44:58.981Z,2.50
2023-12-11T10:47:27.885Z,1.73
2023-12-11T10:49:55.199Z,1.70
2023-12-11T10:52:22.468Z,2.60
2023-12-11T10:54:49.449Z,2.05
2023-12-11T10:57:18.558Z,1.35
2023-12-11T10:59:46.009Z,1.88
2023-12-11T11:02:16.931Z,1.23
2023-12-11T11:04:46.599Z,3.20
2023-12-11T11:07:26.589Z,1.95
2023-12-11T11:10:11.551Z,1.92
2023-12-11T11:12:57.446Z,2.22
2023-12-11T11:15:27.590Z,1.83
2023-12-11T11:18:00.546Z,1.52
2023-12-11T11:20:38.321Z,1.38
2023-12-11T11:23:20.380Z,1.15
2023-12-11T11:25:54.051Z,1.40
2023-12-11T11:28:44.437Z,1.92
2023-12-11T11:31:20.195Z,2.10
2023-12-11T11:33:55.044Z,1.92
2023-12-11T11:36:46.607Z,1.08
2023-12-11T11:39:13.889Z,1.42
2023-12-11T11:41:42.778Z,1.90
2023-12-11T11:44:11.203Z,1.65
2023-12-11T11:47:02.068Z,1.70
2023-12-11T11:49:36.770Z,2.88
2023-12-11T11:52:08.822Z,1.33
2023-12-11T11:54:40.686Z,1.30
2023-12-11T11:57:07.974Z,2.47
2023-12-11T11:59:45.123Z,2.22
2023-12-11T12:02:11.990Z,1.77
2023-12-11T12:04:38.902Z,2.38
2023-12-11T12:07:06.883Z,2.50
2023-12-11T12:09:35.557Z,1.90
2023-12-11T12:12:02.815Z,1.35
2023-12-11T12:14:29.826Z,2.67
2023-12-11T12:16:57.038Z,2.60
2023-12-11T12:19:32.638Z,3.20
2023-12-11T12:22:00.347Z,4.07
2023-12-11T12:24:27.422Z,3.40
2023-12-11T12:27:01.313Z,4.75
2023-12-11T12:29:31.149Z,3.13
2023-12-11T12:31:59.381Z,4.72
2023-12-11T12:34:27.394Z,3.70
2023-12-11T12:36:58.663Z,5.05
2023-12-11T12:39:25.694Z,4.22
2023-12-11T12:41:54.773Z,2.65
2023-12-11T12:44:22.558Z,2.05
2023-12-11T12:46:49.483Z,3.30
2023-12-11T12:49:17.967Z,3.70
2023-12-11T12:51:52.883Z,6.22
2023-12-11T12:54:20.589Z,5.82
2023-12-11T12:57:00.294Z,4.57
2023-12-11T12:59:27.527Z,5.18
2023-12-11T13:01:54.636Z,4.90
2023-12-11T13:04:21.783Z,12.63
2023-12-11T13:06:48.771Z,5.57
2023-12-11T13:09:30.512Z,4.78
2023-12-11T13:11:57.307Z,4.05
2023-12-11T13:14:27.012Z,3.67
2023-12-11T13:16:54.791Z,4.70
2023-12-11T13:19:21.907Z,3.78
2023-12-11T13:21:49.359Z,5.07
2023-12-11T13:24:16.232Z,2.83
2023-12-11T13:26:43.184Z,4.38
2023-12-11T13:29:10.034Z,2.38
2023-12-11T13:31:36.808Z,4.15
2023-12-11T13:34:03.759Z,3.30
2023-12-11T13:36:30.606Z,4.35
2023-12-11T13:38:57.459Z,3.05
2023-12-11T13:41:24.327Z,4.88
2023-12-11T13:43:51.219Z,5.18
2023-12-11T13:46:18.062Z,4.00
2023-12-11T13:48:46.755Z,4.22
2023-12-11T13:51:13.773Z,3.55
2023-12-11T13:53:40.620Z,4.65
2023-12-11T13:56:07.899Z,3.88
2023-12-11T13:58:34.836Z,4.32
2023-12-11T14:01:02.282Z,3.92
2023-12-11T14:03:29.328Z,3.65
2023-12-11T14:05:56.293Z,3.40
2023-12-11T14:08:23.203Z,7.78
2023-12-11T14:10:50.398Z,5.40
2023-12-11T14:13:17.361Z,6.38
2023-12-11T14:15:46.889Z,5.05
2023-12-11T14:18:14.713Z,5.28
2023-12-11T14:20:41.692Z,5.90
2023-12-11T14:23:08.763Z,4.88
2023-12-11T14:25:35.684Z,4.72
2023-12-11T14:28:06.068Z,5.10
2023-12-11T14:30:37.824Z,5.72
2023-12-11T14:33:06.303Z,7.00
2023-12-11T14:35:33.483Z,6.93
2023-12-11T14:38:00.568Z,6.78
2023-12-11T14:40:27.530Z,7.05
2023-12-11T14:42:54.568Z,5.45
2023-12-11T14:45:21.494Z,5.65
2023-12-11T14:47:48.406Z,12.63
2023-12-11T14:50:15.535Z,5.75
2023-12-11T14:52:43.251Z,11.32
2023-12-11T14:55:10.284Z,7.88
2023-12-11T14:57:38.215Z,8.10
2023-12-11T15:00:07.011Z,7.88
2023-12-11T15:02:34.711Z,8.32
2023-12-11T15:05:01.824Z,10.65
2023-12-11T15:07:29.504Z,7.65
2023-12-11T15:09:56.822Z,7.57
2023-12-11T15:12:24.333Z,6.80
2023-12-11T15:14:51.652Z,4.75
2023-12-11T15:17:18.483Z,6.53
2023-12-11T15:19:46.792Z,5.30
2023-12-11T15:22:14.187Z,3.55
2023-12-11T15:24:41.219Z,3.50
2023-12-11T15:27:08.338Z,3.60
2023-12-11T15:29:38.148Z,3.70
2023-12-11T15:32:06.239Z,5.88
2023-12-11T15:34:33.642Z,5.15
2023-12-11T15:37:00.726Z,6.55
2023-12-11T15:39:27.621Z,7.20
2023-12-11T15:41:54.509Z,7.80
2023-12-11T15:44:21.409Z,6.32
2023-12-11T15:46:48.277Z,4.85
2023-12-11T15:49:15.216Z,8.07
2023-12-11T15:51:42.219Z,8.75
2023-12-11T15:54:12.105Z,7.53
2023-12-11T15:56:39.199Z,8.20
2023-12-11T15:59:06.001Z,4.70
2023-12-11T16:01:33.086Z,7.55
2023-12-11T16:04:00.904Z,5.47
2023-12-11T16:06:29.616Z,6.85
2023-12-11T16:08:56.448Z,8.18
2023-12-11T16:11:23.265Z,8.65
2023-12-11T16:13:50.077Z,5.40
2023-12-11T16:16:19.487Z,7.82
2023-12-11T16:18:48.114Z,7.82
2023-12-11T16:21:15.101Z,7.15
2023-12-11T16:23:41.970Z,5.50
2023-12-11T16:26:15.048Z,5.75
2023-12-11T16:28:42.131Z,8.77
2023-12-11T16:31:09.785Z,6.35
2023-12-11T16:33:36.896Z,5.50
2023-12-11T16:36:03.986Z,4.28
2023-12-11T16:38:30.887Z,7.70
2023-12-11T16:40:57.808Z,7.88
2023-12-11T16:43:24.664Z,6.38
2023-12-11T16:45:51.514Z,8.55
2023-12-11T16:48:18.526Z,5.63
2023-12-11T16:50:45.986Z,6.82
2023-12-11T16:53:12.940Z,7.55
2023-12-11T16:55:39.880Z,5.05
2023-12-11T16:58:08.760Z,7.55
2023-12-11T17:00:35.748Z,4.22
2023-12-11T17:03:02.593Z,5.47
2023-12-11T17:05:30.139Z,5.10
2023-12-11T17:07:57.090Z,3.03
2023-12-11T17:10:24.640Z,4.22
2023-12-11T17:12:52.482Z,5.32
2023-12-11T17:15:19.487Z,6.60
2023-12-11T17:17:46.356Z,7.38
2023-12-11T17:20:13.396Z,5.88
2023-12-11T17:22:40.288Z,6.80
2023-12-11T17:25:07.639Z,5.68
2023-12-11T17:27:34.933Z,3.53
2023-12-11T17:30:03.870Z,4.40
2023-12-11T17:32:32.654Z,4.50
2023-12-11T17:35:00.290Z,5.57
2023-12-11T17:37:27.385Z,4.75
2023-12-11T17:39:55.738Z,4.25
2023-12-11T17:42:22.636Z,4.70
2023-12-11T17:44:49.534Z,6.03
2023-12-11T17:47:16.371Z,4.68
2023-12-11T17:49:43.796Z,8.05
2023-12-11T17:52:12.161Z,4.70
2023-12-11T17:54:39.279Z,5.82
2023-12-11T17:57:06.388Z,4.97
2023-12-11T17:59:33.283Z,3.88
2023-12-11T18:02:00.184Z,4.85
2023-12-11T18:04:27.171Z,4.65
2023-12-11T18:06:55.188Z,4.80
2023-12-11T18:09:22.137Z,5.13
2023-12-11T18:11:49.001Z,11.75
2023-12-11T18:14:15.860Z,5.85
2023-12-11T18:16:42.666Z,6.93
2023-12-11T18:19:09.574Z,4.53
2023-12-11T18:21:36.477Z,7.35
2023-12-11T18:24:05.990Z,4.00
2023-12-11T18:26:32.791Z,5.32
2023-12-11T18:28:59.651Z,5.50
2023-12-11T18:31:26.649Z,4.13
2023-12-11T18:33:53.714Z,5.75
2023-12-11T18:36:20.694Z,6.68
2023-12-11T18:38:47.505Z,9.18
2023-12-11T18:41:24.585Z,8.30
2023-12-11T18:43:51.820Z,6.00
2023-12-11T18:46:20.067Z,7.30
2023-12-11T18:48:47.107Z,6.43
2023-12-11T18:51:24.295Z,10.10
2023-12-11T18:53:51.261Z,9.38
2023-12-11T18:56:23.443Z,7.20
2023-12-11T18:58:50.818Z,6.60
2023-12-11T19:01:17.927Z,6.53
2023-12-11T19:03:45.103Z,6.80
2023-12-11T19:06:12.081Z,5.72
2023-12-11T19:08:39.135Z,5.43
2023-12-11T19:11:07.442Z,7.30
2023-12-11T19:13:34.372Z,8.82
2023-12-11T19:16:01.518Z,7.10
2023-12-11T19:18:28.555Z,6.75
2023-12-11T19:20:55.564Z,8.98
2023-12-11T19:23:22.884Z,5.15
2023-12-11T19:25:49.769Z,7.28
2023-12-11T19:28:16.669Z,10.55
2023-12-11T19:30:43.610Z,10.43
2023-12-11T19:33:10.738Z,9.30
2023-12-11T19:35:37.565Z,9.05
2023-12-11T19:38:05.009Z,8.20
2023-12-11T19:40:31.945Z,7.32
2023-12-11T19:42:58.973Z,7.30
2023-12-11T19:45:25.811Z,4.82
2023-12-11T19:47:52.810Z,5.93
2023-12-11T19:50:19.851Z,6.13
2023-12-11T19:52:51.048Z,5.75
2023-12-11T19:55:19.248Z,4.38
2023-12-11T19:57:46.266Z,5.28
2023-12-11T20:00:13.609Z,9.27
2023-12-11T20:02:40.460Z,4.13
2023-12-11T20:05:07.513Z,5.43
2023-12-11T20:07:34.694Z,5.80
2023-12-11T20:10:02.612Z,3.70
2023-12-11T20:12:34.872Z,5.47
2023-12-11T20:15:01.876Z,6.20
2023-12-11T20:17:29.084Z,6.13
2023-12-11T20:19:58.811Z,5.07
2023-12-11T20:22:25.761Z,7.88
2023-12-11T20:24:52.740Z,4.20
2023-12-11T20:27:19.585Z,6.90
2023-12-11T20:29:46.454Z,4.95
2023-12-11T20:32:13.340Z,6.57
2023-12-11T20:34:40.371Z,7.57
2023-12-11T20:37:07.386Z,6.32
2023-12-11T20:39:34.196Z,6.22
2023-12-11T20:42:00.990Z,5.60
2023-12-11T20:44:27.829Z,6.40
2023-12-11T20:46:54.665Z,8.65
2023-12-11T20:49:21.720Z,7.60
2023-12-11T20:51:48.794Z,7.18
2023-12-11T20:54:16.037Z,6.03
2023-12-11T20:56:42.985Z,5.22
2023-12-11T20:59:10.829Z,7.05
2023-12-11T21:01:39.080Z,7.50
2023-12-11T21:04:08.630Z,6.70
2023-12-11T21:06:38.658Z,4.35
2023-12-11T21:09:08.952Z,4.55
2023-12-11T21:11:36.860Z,4.97
2023-12-11T21:14:06.539Z,5.40
2023-12-11T21:16:36.520Z,5.70
2023-12-11T21:19:04.208Z,5.53
2023-12-11T21:21:31.364Z,6.82
2023-12-11T21:23:58.222Z,7.20
2023-12-11T21:26:26.430Z,4.65
2023-12-11T21:28:54.613Z,7.57
2023-12-11T21:31:26.041Z,8.82
2023-12-11T21:33:54.609Z,5.32
2023-12-11T21:36:22.870Z,6.40
2023-12-11T21:38:50.565Z,6.95
2023-12-11T21:41:18.045Z,5.18
2023-12-11T21:43:47.172Z,3.67
2023-12-11T21:46:14.963Z,4.43
2023-12-11T21:48:44.824Z,6.15
2023-12-11T21:51:17.312Z,5.65
2023-12-11T21:53:45.025Z,7.22
2023-12-11T21:56:12.325Z,5.40
2023-12-11T21:58:39.420Z,5.55
2023-12-11T22:01:06.326Z,6.60
2023-12-11T22:03:33.370Z,4.43
2023-12-11T22:06:00.621Z,4.15
2023-12-11T22:08:27.940Z,5.30
2023-12-11T22:10:55.112Z,7.18
2023-12-11T22:13:22.202Z,9.32
2023-12-11T22:15:49.154Z,11.05
2023-12-11T22:18:16.092Z,7.43
2023-12-11T22:20:44.364Z,10.43
2023-12-11T22:23:12.223Z,8.25
2023-12-11T22:25:39.106Z,7.03
2023-12-11T22:28:06.063Z,5.85
2023-12-11T22:30:33.031Z,4.93
2023-12-11T22:33:00.006Z,8.02
2023-12-11T22:35:26.861Z,5.82
2023-12-11T22:37:53.700Z,6.68
2023-12-11T22:40:20.694Z,4.57
2023-12-11T22:42:48.535Z,5.45
2023-12-11T22:45:17.843Z,4.40
2023-12-11T22:47:45.156Z,6.72
2023-12-11T22:50:12.213Z,6.40
2023-12-11T22:52:42.166Z,6.63
2023-12-11T22:55:09.667Z,4.60
2023-12-11T22:57:36.591Z,5.82
2023-12-11T23:00:03.814Z,7.80
2023-12-11T23:02:31.024Z,4.10
2023-12-11T23:04:58.508Z,6.70
2023-12-11T23:07:25.482Z,4.18
2023-12-11T23:09:52.477Z,8.20
2023-12-11T23:12:19.372Z,5.45
2023-12-11T23:14:46.143Z,4.05
2023-12-11T23:17:12.973Z,5.10
2023-12-11T23:19:40.054Z,4.05
2023-12-11T23:22:06.991Z,6.75
2023-12-11T23:24:33.825Z,6.75
2023-12-11T23:27:01.039Z,4.32
2023-12-11T23:29:27.948Z,2.97
2023-12-11T23:31:54.760Z,3.85
2023-12-11T23:34:21.791Z,5.30
2023-12-11T23:36:48.753Z,4.28
2023-12-11T23:39:15.663Z,3.63
2023-12-11T23:41:42.772Z,3.67
2023-12-11T23:44:09.629Z,8.20
2023-12-11T23:46:36.584Z,4.47
2023-12-11T23:49:03.634Z,3.97
2023-12-11T23:51:30.585Z,7.68
2023-12-11T23:53:57.404Z,3.75
2023-12-11T23:56:24.439Z,4.28
2023-12-11T23:58:51.563Z,5.18
